createdAt,value
2023-02-14T00:01:36.977Z,30.00
2023-02-14T00:03:44.377Z,29.35
2023-02-14T00:05:49.504Z,30.45
2023-02-14T00:09:58.935Z,30.73
2023-02-14T00:12:03.786Z,31.40
2023-02-14T00:14:21.585Z,30.60
2023-02-14T00:16:26.390Z,30.88
2023-02-14T00:18:51.206Z,29.42
2023-02-14T00:21:02.814Z,30.40
2023-02-14T00:23:07.894Z,30.52
2023-02-14T00:25:12.877Z,29.67
2023-02-14T00:27:17.810Z,28.23
2023-02-14T00:29:25.840Z,29.08
2023-02-14T00:31:30.741Z,27.75
2023-02-14T00:33:35.698Z,29.02
2023-02-14T00:35:40.951Z,28.25
2023-02-14T00:39:55.210Z,29.17
2023-02-14T00:42:00.011Z,29.27
2023-02-14T00:44:05.409Z,28.55
2023-02-14T00:46:10.393Z,27.70
2023-02-14T00:48:15.475Z,28.83
2023-02-14T00:50:20.440Z,26.88
2023-02-14T00:52:25.322Z,29.15
2023-02-14T00:54:32.994Z,29.30
2023-02-14T00:56:37.850Z,28.83
2023-02-14T00:58:42.879Z,27.70
2023-02-14T01:00:47.736Z,32.15
2023-02-14T01:02:52.589Z,30.48
2023-02-14T01:04:59.476Z,30.25
2023-02-14T01:07:04.304Z,29.63
2023-02-14T01:09:09.312Z,29.80
2023-02-14T01:11:19.044Z,29.08
2023-02-14T01:13:24.127Z,28.50
2023-02-14T01:15:28.891Z,28.80
2023-02-14T01:17:33.786Z,29.13
2023-02-14T01:19:42.514Z,28.75
2023-02-14T01:21:47.417Z,28.25
2023-02-14T01:23:57.359Z,27.73
2023-02-14T01:26:02.127Z,29.23
2023-02-14T01:28:09.865Z,28.83
2023-02-14T01:30:16.418Z,30.27
2023-02-14T01:32:21.283Z,28.73
2023-02-14T01:34:28.677Z,32.75
2023-02-14T01:36:35.294Z,32.15
2023-02-14T01:38:40.148Z,31.55
2023-02-14T01:40:45.866Z,30.55
2023-02-14T01:42:50.630Z,29.92
2023-02-14T01:45:04.351Z,29.20
2023-02-14T01:47:12.916Z,31.50
2023-02-14T01:49:21.216Z,30.08
2023-02-14T01:51:29.116Z,30.95
2023-02-14T01:53:34.056Z,29.85
2023-02-14T01:55:41.844Z,32.25
2023-02-14T01:57:50.680Z,31.00
2023-02-14T02:00:22.351Z,30.40
2023-02-14T02:02:27.143Z,31.65
2023-02-14T02:04:39.570Z,31.05
2023-02-14T02:06:50.293Z,31.00
2023-02-14T02:09:03.747Z,30.77
2023-02-14T02:11:08.594Z,31.42
2023-02-14T02:13:20.184Z,31.88
2023-02-14T02:15:30.230Z,32.95
2023-02-14T02:17:47.304Z,32.05
2023-02-14T02:20:22.176Z,30.90
2023-02-14T02:23:08.233Z,30.90
2023-02-14T02:25:29.394Z,31.85
2023-02-14T02:28:03.816Z,32.38
2023-02-14T02:30:41.295Z,33.75
2023-02-14T02:33:28.304Z,31.88
2023-02-14T02:36:02.733Z,32.55
2023-02-14T02:38:23.924Z,31.35
2023-02-14T02:40:37.961Z,31.85
2023-02-14T02:42:51.001Z,30.73
2023-02-14T02:45:06.486Z,30.92
2023-02-14T02:47:18.945Z,28.40
2023-02-14T02:49:45.567Z,28.25
2023-02-14T02:52:12.939Z,27.90
2023-02-14T02:54:26.426Z,28.10
2023-02-14T02:56:45.987Z,28.58
2023-02-14T02:58:56.317Z,29.67
2023-02-14T03:01:04.802Z,31.20
2023-02-14T03:03:22.430Z,31.58
2023-02-14T03:05:28.227Z,34.47
2023-02-14T03:07:39.453Z,31.60
2023-02-14T03:09:56.839Z,33.80
2023-02-14T03:12:13.817Z,32.88
2023-02-14T03:14:27.166Z,32.63
2023-02-14T03:16:56.316Z,33.28
2023-02-14T03:19:17.686Z,35.10
2023-02-14T03:21:30.978Z,32.22
2023-02-14T03:23:45.728Z,32.97
2023-02-14T03:26:05.334Z,34.30
2023-02-14T03:28:18.289Z,33.53
2023-02-14T03:30:38.317Z,31.92
2023-02-14T03:32:48.604Z,33.13
2023-02-14T03:34:59.971Z,39.58
2023-02-14T03:37:11.798Z,32.75
2023-02-14T03:39:24.790Z,34.25
2023-02-14T03:41:36.798Z,33.28
2023-02-14T03:43:47.087Z,34.30
2023-02-14T03:45:56.508Z,32.72
2023-02-14T03:48:07.050Z,33.42
2023-02-14T03:50:17.369Z,32.60
2023-02-14T03:52:23.757Z,34.00
2023-02-14T03:54:33.011Z,32.50
2023-02-14T03:56:41.457Z,32.75
2023-02-14T03:58:49.924Z,31.33
2023-02-14T04:01:00.915Z,31.70
2023-02-14T04:03:11.954Z,31.95
2023-02-14T04:05:20.471Z,32.38
2023-02-14T04:07:26.715Z,30.67
2023-02-14T04:09:34.124Z,32.80
2023-02-14T04:11:39.183Z,31.80
2023-02-14T04:13:44.007Z,31.20
2023-02-14T04:15:48.944Z,31.45
2023-02-14T04:20:11.489Z,30.23
2023-02-14T04:22:16.463Z,28.80
2023-02-14T04:24:22.051Z,33.50
2023-02-14T04:26:29.460Z,30.65
2023-02-14T04:28:34.644Z,31.10
2023-02-14T04:32:44.363Z,28.95
2023-02-14T04:34:49.559Z,29.42
2023-02-14T04:38:59.720Z,29.30
2023-02-14T04:41:04.532Z,31.15
2023-02-14T04:43:11.966Z,31.63
2023-02-14T04:45:17.594Z,30.48
2023-02-14T04:47:22.373Z,31.13
2023-02-14T04:49:27.166Z,29.35
2023-02-14T04:51:31.940Z,31.55
2023-02-14T04:53:42.215Z,31.02
2023-02-14T04:55:47.082Z,29.90
2023-02-14T04:57:51.957Z,30.30
2023-02-14T04:59:59.367Z,28.88
2023-02-14T05:02:04.314Z,29.17
2023-02-14T05:04:09.172Z,29.92
2023-02-14T05:06:13.976Z,31.60
2023-02-14T05:08:18.994Z,28.25
2023-02-14T05:10:23.900Z,29.95
2023-02-14T05:12:28.710Z,28.90
2023-02-14T05:14:33.698Z,29.33
2023-02-14T05:16:41.258Z,29.92
2023-02-14T05:18:46.083Z,31.13
2023-02-14T05:20:52.442Z,28.45
2023-02-14T05:23:03.463Z,30.30
2023-02-14T05:25:09.134Z,28.83
2023-02-14T05:27:13.985Z,31.58
2023-02-14T05:29:18.813Z,31.35
2023-02-14T05:31:23.801Z,28.98
2023-02-14T05:33:31.279Z,31.25
2023-02-14T05:35:36.326Z,29.65
2023-02-14T05:37:41.381Z,32.03
2023-02-14T05:39:46.254Z,29.90
2023-02-14T05:41:51.077Z,29.90
2023-02-14T05:43:55.889Z,29.15
2023-02-14T05:46:02.764Z,28.73
2023-02-14T05:48:08.538Z,28.48
2023-02-14T05:50:16.106Z,28.63
2023-02-14T05:52:20.879Z,29.40
2023-02-14T05:54:25.661Z,28.98
2023-02-14T05:56:30.477Z,28.58
2023-02-14T05:58:35.805Z,29.08
2023-02-14T06:00:41.392Z,29.38
2023-02-14T06:02:47.132Z,28.85
2023-02-14T06:04:52.138Z,30.05
2023-02-14T06:09:04.276Z,30.42
2023-02-14T06:11:09.151Z,29.58
2023-02-14T06:13:14.000Z,29.05
2023-02-14T06:15:19.052Z,32.13
2023-02-14T06:17:23.799Z,32.35
2023-02-14T06:19:28.687Z,30.55
2023-02-14T06:21:33.550Z,30.50
2023-02-14T06:23:41.028Z,29.63
2023-02-14T06:25:45.949Z,30.30
2023-02-14T06:27:51.061Z,30.88
2023-02-14T06:29:55.834Z,28.45
2023-02-14T06:32:05.975Z,27.88
2023-02-14T06:34:10.806Z,28.17
2023-02-14T06:36:15.666Z,30.50
2023-02-14T06:38:20.518Z,28.67
2023-02-14T06:40:27.932Z,28.45
2023-02-14T06:42:32.716Z,27.88
2023-02-14T06:44:37.527Z,27.10
2023-02-14T06:46:42.285Z,30.33
2023-02-14T06:48:47.862Z,31.73
2023-02-14T06:50:53.020Z,27.45
2023-02-14T06:53:01.280Z,28.92
2023-02-14T06:55:06.153Z,29.17
2023-02-14T06:57:13.564Z,30.42
2023-02-14T06:59:18.606Z,29.33
2023-02-14T07:01:23.462Z,27.05
2023-02-14T07:03:28.376Z,27.15
2023-02-14T07:05:33.125Z,25.83
2023-02-14T07:07:37.980Z,24.67
2023-02-14T07:09:42.910Z,26.50
2023-02-14T07:11:48.140Z,25.83
2023-02-14T07:16:00.291Z,26.20
2023-02-14T07:18:05.484Z,28.45
2023-02-14T07:22:15.854Z,25.42
2023-02-14T07:24:20.626Z,24.30
2023-02-14T07:26:25.450Z,24.70
2023-02-14T07:28:30.521Z,25.63
2023-02-14T07:30:38.005Z,24.80
2023-02-14T07:32:44.680Z,25.25
2023-02-14T07:34:49.596Z,26.88
2023-02-14T07:36:55.655Z,24.83
2023-02-14T07:39:00.451Z,26.55
2023-02-14T07:41:05.548Z,27.35
2023-02-14T07:43:10.851Z,26.13
2023-02-14T07:45:21.753Z,25.73
2023-02-14T07:47:29.788Z,26.27
2023-02-14T07:49:34.647Z,24.60
2023-02-14T07:51:39.461Z,24.55
2023-02-14T07:53:44.266Z,23.88
2023-02-14T07:55:52.106Z,24.52
2023-02-14T07:57:57.286Z,25.30
2023-02-14T08:02:16.875Z,23.88
2023-02-14T08:04:26.175Z,25.83
2023-02-14T08:06:31.045Z,23.80
2023-02-14T08:08:35.912Z,22.90
2023-02-14T08:10:40.892Z,24.92
2023-02-14T08:12:58.144Z,23.80
2023-02-14T08:15:22.920Z,26.63
2023-02-14T08:17:27.728Z,26.02
2023-02-14T08:19:35.176Z,24.42
2023-02-14T08:21:40.026Z,23.17
2023-02-14T08:23:47.290Z,24.67
2023-02-14T08:25:56.102Z,25.73
2023-02-14T08:28:00.867Z,25.40
2023-02-14T08:30:05.713Z,25.48
2023-02-14T08:32:10.635Z,24.10
2023-02-14T08:34:19.287Z,24.45
2023-02-14T08:36:26.685Z,22.92
2023-02-14T08:38:31.973Z,23.50
2023-02-14T08:42:42.101Z,25.08
2023-02-14T08:44:46.893Z,24.42
2023-02-14T08:46:51.804Z,23.55
2023-02-14T08:48:56.911Z,22.00
2023-02-14T08:53:13.415Z,21.60
2023-02-14T08:55:18.407Z,22.23
2023-02-14T08:57:23.186Z,24.25
2023-02-14T08:59:28.995Z,22.55
2023-02-14T09:01:33.948Z,22.50
2023-02-14T09:03:39.103Z,23.83
2023-02-14T09:07:48.571Z,21.88
2023-02-14T09:09:55.953Z,21.60
2023-02-14T09:12:00.749Z,22.13
2023-02-14T09:14:05.730Z,23.10
2023-02-14T09:18:17.127Z,21.90
2023-02-14T09:22:26.691Z,22.00
2023-02-14T09:24:31.457Z,23.48
2023-02-14T09:26:40.958Z,22.45
2023-02-14T09:28:45.960Z,23.98
2023-02-14T09:30:52.305Z,23.52
2023-02-14T09:32:58.864Z,22.05
2023-02-14T09:35:03.757Z,24.40
2023-02-14T09:37:06.505Z,22.33
2023-02-14T09:39:11.407Z,22.67
2023-02-14T09:41:50.552Z,23.45
2023-02-14T09:44:00.785Z,22.08
2023-02-14T09:46:06.998Z,19.55
2023-02-14T09:48:17.217Z,21.38
2023-02-14T09:50:26.984Z,19.83
2023-02-14T09:52:33.578Z,23.50
2023-02-14T09:54:39.997Z,21.80
2023-02-14T09:56:55.067Z,21.50
2023-02-14T09:59:07.950Z,19.65
2023-02-14T10:01:20.481Z,18.73
2023-02-14T10:03:41.081Z,21.08
2023-02-14T10:05:55.958Z,20.52
2023-02-14T10:08:05.815Z,21.50
2023-02-14T10:10:17.962Z,21.30
2023-02-14T10:12:37.880Z,19.33
2023-02-14T10:14:43.864Z,19.88
2023-02-14T10:16:56.550Z,19.27
2023-02-14T10:19:05.180Z,21.38
2023-02-14T10:21:14.187Z,21.50
2023-02-14T10:23:32.230Z,23.40
2023-02-14T10:25:46.763Z,23.63
2023-02-14T10:27:58.447Z,23.23
2023-02-14T10:30:04.149Z,20.63
2023-02-14T10:32:17.040Z,21.30
2023-02-14T10:34:28.602Z,22.05
2023-02-14T10:36:48.440Z,19.48
2023-02-14T10:39:00.494Z,20.00
2023-02-14T10:41:20.140Z,19.60
2023-02-14T10:43:38.799Z,20.98
2023-02-14T10:45:50.471Z,20.48
2023-02-14T10:48:04.034Z,20.83
2023-02-14T10:50:18.542Z,20.35
2023-02-14T10:52:30.042Z,21.33
2023-02-14T10:54:40.650Z,21.13
2023-02-14T10:56:49.677Z,19.75
2023-02-14T10:58:59.428Z,18.63
2023-02-14T11:01:08.292Z,18.17
2023-02-14T11:03:16.835Z,20.40
2023-02-14T11:05:28.759Z,19.50
2023-02-14T11:07:33.771Z,18.73
2023-02-14T11:09:38.560Z,20.38
2023-02-14T11:11:48.257Z,18.15
2023-02-14T11:13:56.005Z,19.15
2023-02-14T11:16:06.555Z,20.20
2023-02-14T11:18:19.709Z,17.63
2023-02-14T11:20:30.398Z,19.23
2023-02-14T11:22:37.020Z,18.08
2023-02-14T11:24:43.032Z,16.83
2023-02-14T11:26:50.126Z,17.73
2023-02-14T11:29:02.254Z,18.67
2023-02-14T11:31:07.314Z,16.40
2023-02-14T11:33:15.657Z,17.08
2023-02-14T11:35:24.355Z,17.90
2023-02-14T11:37:31.693Z,16.83
2023-02-14T11:39:38.112Z,17.30
2023-02-14T11:41:51.196Z,18.02
2023-02-14T11:44:15.511Z,15.82
2023-02-14T11:46:31.411Z,16.55
2023-02-14T11:48:39.152Z,16.02
2023-02-14T11:50:45.479Z,14.85
2023-02-14T11:52:57.187Z,16.20
2023-02-14T11:55:03.201Z,15.98
2023-02-14T11:57:11.144Z,15.98
2023-02-14T11:59:29.294Z,15.38
2023-02-14T12:01:36.299Z,18.33
2023-02-14T12:03:47.852Z,15.93
2023-02-14T12:05:57.313Z,15.75
2023-02-14T12:08:04.479Z,17.00
2023-02-14T12:10:36.561Z,17.98
2023-02-14T12:12:51.047Z,16.73
2023-02-14T12:15:24.552Z,17.63
2023-02-14T12:17:35.982Z,18.25
2023-02-14T12:19:49.445Z,17.27
2023-02-14T12:21:58.560Z,17.52
2023-02-14T12:24:08.813Z,17.85
2023-02-14T12:26:21.435Z,17.90
2023-02-14T12:28:34.877Z,17.52
2023-02-14T12:30:42.437Z,18.08
2023-02-14T12:32:51.838Z,16.92
2023-02-14T12:35:03.926Z,16.90
2023-02-14T12:37:24.945Z,17.03
2023-02-14T12:39:38.628Z,17.40
2023-02-14T12:41:52.270Z,15.82
2023-02-14T12:43:59.209Z,17.42
2023-02-14T12:46:20.858Z,17.17
2023-02-14T12:48:41.202Z,16.48
2023-02-14T12:50:52.383Z,17.65
2023-02-14T12:53:23.769Z,16.20
2023-02-14T12:55:45.174Z,17.77
2023-02-14T12:57:57.018Z,17.60
2023-02-14T13:00:17.593Z,17.83
2023-02-14T13:02:52.609Z,17.45
2023-02-14T13:05:04.456Z,18.50
2023-02-14T13:07:21.591Z,17.90
2023-02-14T13:09:41.123Z,17.33
2023-02-14T13:11:57.863Z,17.92
2023-02-14T13:14:14.385Z,16.60
2023-02-14T13:16:26.502Z,18.50
2023-02-14T13:18:45.886Z,17.00
2023-02-14T13:20:58.894Z,17.35
2023-02-14T13:23:07.960Z,16.00
2023-02-14T13:25:30.896Z,17.88
2023-02-14T13:27:40.253Z,17.88
2023-02-14T13:29:49.910Z,15.50
2023-02-14T13:32:00.281Z,16.80
2023-02-14T13:34:11.107Z,17.45
2023-02-14T13:36:19.582Z,16.60
2023-02-14T13:38:25.809Z,15.63
2023-02-14T13:40:32.812Z,17.08
2023-02-14T13:42:55.771Z,17.17
2023-02-14T13:45:00.628Z,16.40
2023-02-14T13:47:05.549Z,15.55
2023-02-14T13:49:28.936Z,17.00
2023-02-14T13:51:53.819Z,17.52
2023-02-14T13:53:58.645Z,15.35
2023-02-14T13:56:04.386Z,16.88
2023-02-14T13:58:17.796Z,15.50
2023-02-14T14:00:43.728Z,17.30
2023-02-14T14:02:50.289Z,15.25
2023-02-14T14:04:55.070Z,14.57
2023-02-14T14:07:22.201Z,13.30
2023-02-14T14:09:58.066Z,15.13
2023-02-14T14:12:03.027Z,13.68
2023-02-14T14:14:37.140Z,16.30
2023-02-14T14:16:42.045Z,14.82
2023-02-14T14:18:47.349Z,17.35
2023-02-14T14:20:52.636Z,17.27
2023-02-14T14:25:07.559Z,14.27
2023-02-14T14:27:18.946Z,13.80
2023-02-14T14:29:29.187Z,15.48
2023-02-14T14:31:37.324Z,13.77
2023-02-14T14:33:42.613Z,14.25
2023-02-14T14:38:01.528Z,15.23
2023-02-14T14:40:09.703Z,16.63
2023-02-14T14:42:18.002Z,15.25
2023-02-14T14:44:23.220Z,15.27
2023-02-14T14:46:28.187Z,14.68
2023-02-14T14:48:40.222Z,14.98
2023-02-14T14:50:50.406Z,16.45
2023-02-14T14:52:58.616Z,16.65
2023-02-14T14:55:05.294Z,16.60
2023-02-14T14:57:10.207Z,15.45
2023-02-14T14:59:28.852Z,15.45
2023-02-14T15:01:38.600Z,15.15
2023-02-14T15:03:46.037Z,15.82
2023-02-14T15:05:56.255Z,15.93
2023-02-14T15:08:01.494Z,15.52
2023-02-14T15:10:06.932Z,15.25
2023-02-14T15:12:26.487Z,14.55
2023-02-14T15:14:33.324Z,17.83
2023-02-14T15:16:43.881Z,15.70
2023-02-14T15:18:54.119Z,21.77
2023-02-14T15:20:59.397Z,18.08
2023-02-14T15:23:05.026Z,16.70
2023-02-14T15:25:14.149Z,21.02
2023-02-14T15:27:21.096Z,19.92
2023-02-14T15:29:28.760Z,19.17
2023-02-14T15:31:36.160Z,22.70
2023-02-14T15:33:41.471Z,21.48
2023-02-14T15:37:57.017Z,18.83
2023-02-14T15:40:02.419Z,16.90
2023-02-14T15:42:07.737Z,15.68
2023-02-14T15:44:21.978Z,15.90
2023-02-14T15:46:36.977Z,16.38
2023-02-14T15:48:43.776Z,18.83
2023-02-14T15:50:57.229Z,18.60
2023-02-14T15:53:08.148Z,18.05
2023-02-14T15:55:14.582Z,17.70
2023-02-14T15:57:26.402Z,16.15
2023-02-14T15:59:35.553Z,17.92
2023-02-14T16:01:44.214Z,17.58
2023-02-14T16:03:57.454Z,16.20
2023-02-14T16:06:06.227Z,16.85
2023-02-14T16:08:29.697Z,16.20
2023-02-14T16:10:35.779Z,16.50
2023-02-14T16:12:42.802Z,17.23
2023-02-14T16:14:47.863Z,15.38
2023-02-14T16:17:03.726Z,17.17
2023-02-14T16:19:28.545Z,17.30
2023-02-14T16:21:36.091Z,16.92
2023-02-14T16:23:41.480Z,15.90
2023-02-14T16:25:46.751Z,15.77
2023-02-14T16:29:56.285Z,17.90
2023-02-14T16:32:15.290Z,14.85
2023-02-14T16:34:21.744Z,16.75
2023-02-14T16:38:38.212Z,19.13
2023-02-14T16:40:46.601Z,16.52
2023-02-14T16:42:51.533Z,17.83
2023-02-14T16:44:56.671Z,16.63
2023-02-14T16:47:01.560Z,16.90
2023-02-14T16:49:06.695Z,17.20
2023-02-14T16:51:15.257Z,17.65
2023-02-14T16:53:28.488Z,17.92
2023-02-14T16:55:36.680Z,18.95
2023-02-14T16:57:45.676Z,20.17
2023-02-14T16:59:50.554Z,19.02
2023-02-14T17:01:55.580Z,16.58
2023-02-14T17:04:00.598Z,18.17
2023-02-14T17:06:12.078Z,17.33
2023-02-14T17:08:25.028Z,17.90
2023-02-14T17:10:31.034Z,19.00
2023-02-14T17:12:44.573Z,20.08
2023-02-14T17:14:58.376Z,18.17
2023-02-14T17:17:03.488Z,19.13
2023-02-14T17:21:16.204Z,22.45
2023-02-14T17:23:27.870Z,22.35
2023-02-14T17:25:33.189Z,21.25
2023-02-14T17:29:51.537Z,19.90
2023-02-14T17:31:56.738Z,20.83
2023-02-14T17:36:11.840Z,20.15
2023-02-14T17:38:16.999Z,20.75
2023-02-14T17:40:22.136Z,21.98
2023-02-14T17:42:27.086Z,23.48
2023-02-14T17:44:36.037Z,23.70
2023-02-14T17:46:41.121Z,22.02
2023-02-14T17:48:46.275Z,21.35
2023-02-14T17:52:57.010Z,21.38
2023-02-14T17:55:01.816Z,20.80
2023-02-14T17:57:07.396Z,20.75
2023-02-14T17:59:12.176Z,23.27
2023-02-14T18:01:21.468Z,22.15
2023-02-14T18:03:26.489Z,21.17
2023-02-14T18:05:31.390Z,21.95
2023-02-14T18:07:37.040Z,25.15
2023-02-14T18:09:42.111Z,22.67
2023-02-14T18:11:47.256Z,23.48
2023-02-14T18:13:52.547Z,26.70
2023-02-14T18:16:03.934Z,23.83
2023-02-14T18:18:11.752Z,23.55
2023-02-14T18:20:16.697Z,22.52
2023-02-14T18:22:21.676Z,24.42
2023-02-14T18:24:26.503Z,23.17
2023-02-14T18:26:31.417Z,23.33
2023-02-14T18:28:37.295Z,22.88
2023-02-14T18:30:42.061Z,22.63
2023-02-14T18:32:47.631Z,20.98
2023-02-14T18:34:55.068Z,19.67
2023-02-14T18:37:00.100Z,19.45
2023-02-14T18:39:05.392Z,20.80
2023-02-14T18:41:13.957Z,20.17
2023-02-14T18:43:18.733Z,19.98
2023-02-14T18:45:23.631Z,18.77
2023-02-14T18:47:28.496Z,18.38
2023-02-14T18:49:33.469Z,17.65
2023-02-14T18:51:41.470Z,21.85
2023-02-14T18:53:47.706Z,26.50
2023-02-14T18:55:52.641Z,24.35
2023-02-14T18:57:59.238Z,28.30
2023-02-14T19:00:06.911Z,26.98
2023-02-14T19:02:12.095Z,26.50
2023-02-14T19:04:19.934Z,24.58
2023-02-14T19:06:25.870Z,25.90
2023-02-14T19:08:36.341Z,26.40
2023-02-14T19:10:41.290Z,27.00
2023-02-14T19:12:46.136Z,30.52
2023-02-14T19:14:51.130Z,31.58
2023-02-14T19:16:56.022Z,30.30
2023-02-14T19:19:02.825Z,26.90
2023-02-14T19:21:12.646Z,27.15
2023-02-14T19:23:17.770Z,26.45
2023-02-14T19:25:25.636Z,29.08
2023-02-14T19:27:30.660Z,27.90
2023-02-14T19:29:35.989Z,28.20
2023-02-14T19:31:42.961Z,28.80
2023-02-14T19:33:50.207Z,27.77
2023-02-14T19:36:32.973Z,25.80
2023-02-14T19:39:32.936Z,28.85
2023-02-14T19:41:41.257Z,27.23
2023-02-14T19:44:25.033Z,26.52
2023-02-14T19:47:48.405Z,25.88
2023-02-14T19:51:43.704Z,25.98
2023-02-14T19:54:22.367Z,24.83
2023-02-14T19:56:44.036Z,28.50
2023-02-14T19:59:17.705Z,26.23
2023-02-14T20:02:35.989Z,24.23
2023-02-14T20:05:25.321Z,25.00
2023-02-14T20:08:23.644Z,23.67
2023-02-14T20:12:16.653Z,25.08
2023-02-14T20:14:51.684Z,24.95
2023-02-14T20:17:35.682Z,24.95
2023-02-14T20:20:19.402Z,23.13
2023-02-14T20:22:29.432Z,25.77
2023-02-14T20:24:53.201Z,23.88
2023-02-14T20:28:06.394Z,25.35
2023-02-14T20:31:33.782Z,23.73
2023-02-14T20:34:01.114Z,23.17
2023-02-14T20:36:47.654Z,24.35
2023-02-14T20:42:47.924Z,23.23
2023-02-14T20:46:09.292Z,24.67
2023-02-14T20:54:47.366Z,25.13
2023-02-14T20:57:05.844Z,24.00
2023-02-14T20:59:13.272Z,26.45
2023-02-14T21:01:22.802Z,26.85
2023-02-14T21:04:40.986Z,26.75
2023-02-14T21:07:01.692Z,25.98
2023-02-14T21:10:05.717Z,25.52
2023-02-14T21:18:04.824Z,29.05
2023-02-14T21:20:42.464Z,26.02
2023-02-14T21:23:35.734Z,24.73
2023-02-14T21:26:40.880Z,29.00
2023-02-14T21:32:42.959Z,24.48
2023-02-14T21:35:13.558Z,22.83
2023-02-14T21:37:35.903Z,23.65
2023-02-14T21:39:57.745Z,24.20
2023-02-14T21:42:27.241Z,25.83
2023-02-14T21:45:22.689Z,27.70
2023-02-14T21:49:01.388Z,22.50
2023-02-14T21:51:37.208Z,21.40
2023-02-14T21:54:33.532Z,20.90
2023-02-14T21:56:44.633Z,21.95
2023-02-14T21:58:50.574Z,18.27
2023-02-14T22:00:55.676Z,22.15
2023-02-14T22:03:00.518Z,19.52
2023-02-14T22:05:07.720Z,20.30
2023-02-14T22:07:12.579Z,19.33
2023-02-14T22:09:18.993Z,18.48
2023-02-14T22:11:31.197Z,19.38
2023-02-14T22:13:36.706Z,19.05
2023-02-14T22:15:42.572Z,19.40
2023-02-14T22:17:47.478Z,19.17
2023-02-14T22:19:52.388Z,19.98
2023-02-14T22:21:57.904Z,20.55
2023-02-14T22:24:03.512Z,20.80
2023-02-14T22:26:13.870Z,18.95
2023-02-14T22:28:21.339Z,19.08
2023-02-14T22:30:26.394Z,18.52
2023-02-14T22:34:36.460Z,18.45
2023-02-14T22:38:46.467Z,19.63
2023-02-14T22:40:51.540Z,19.40
2023-02-14T22:42:58.125Z,20.88
2023-02-14T22:45:05.666Z,21.70
2023-02-14T22:47:10.595Z,18.90
2023-02-14T22:49:15.398Z,19.73
2023-02-14T22:51:23.934Z,20.27
2023-02-14T22:53:28.774Z,20.48
2023-02-14T22:55:33.881Z,18.83
2023-02-14T22:57:38.895Z,18.65
2023-02-14T22:59:43.883Z,18.35
2023-02-14T23:01:52.326Z,18.88
2023-02-14T23:03:58.814Z,19.83
2023-02-14T23:06:03.957Z,18.55
2023-02-14T23:08:08.961Z,18.90
2023-02-14T23:10:14.092Z,19.95
2023-02-14T23:14:48.271Z,18.70
2023-02-14T23:17:20.436Z,17.75
2023-02-14T23:19:39.644Z,20.00
2023-02-14T23:21:56.854Z,17.38
2023-02-14T23:24:01.787Z,20.48
2023-02-14T23:26:06.620Z,19.48
2023-02-14T23:28:11.475Z,19.02
2023-02-14T23:30:19.173Z,18.90
2023-02-14T23:32:26.688Z,20.52
2023-02-14T23:34:33.448Z,19.08
2023-02-14T23:36:38.376Z,19.23
2023-02-14T23:38:43.190Z,16.92
2023-02-14T23:41:00.505Z,17.40
2023-02-14T23:43:05.447Z,19.30
2023-02-14T23:45:23.738Z,19.48
2023-02-14T23:47:33.540Z,18.83
2023-02-14T23:49:40.730Z,19.13
2023-02-14T23:51:47.082Z,18.63
2023-02-14T23:53:52.054Z,17.52
2023-02-14T23:56:02.987Z,17.70
2023-02-14T23:58:08.019Z,17.02
